KSTK/STK METAR and TAF weather

Enter ICAO airport designator
Station Type Date Time Source
KSTK METAR 2024/04/15 08:35 UTC NOAA

KSTK 150835Z AUTO 12016G21KT 10SM CLR 15/02 A2970 RMK AO2


Station Type Date Time Source
KSTK Decoded METAR 2024/04/15 08:35 UTC NOAA

Station name not available
Apr 15, 2024 - 04:35 AM EDT / 2024.04.15 0835 UTC
Wind: from the ESE (120 degrees) at 18 MPH (16 KT) gusting to 24 MPH (21 KT):0
Visibility: 10 mile(s):0
Sky conditions: clear
Temperature: 59 F (15 C)
Dew Point: 35 F (2 C)
Relative Humidity: 41%
Pressure (altimeter): 29.7 in. Hg (1005 hPa)
ob: KSTK 150835Z AUTO 12016G21KT 10SM CLR 15/02 A2970 RMK AO2
cycle: 8

Station Type Date Time Source
KSTK TAF UTC NOAA

Error!

Example: see airport list